El Paso, TX (88559)

8:03 AM MST on December 18, 2014 (GMT -0700)
Vista del Sol | Change Station
CLOSE
Current Station
Personal Weather Station
Location: El Paso, TX
Elevation: 4010 ft
Nearby Weather Stations

Elev 4010 ft 31.76 °N, 106.34 °W | Updated 6 seconds ago

Clear
Clear
45.3 °F
Feels Like 45 °F
N
0.0
Wind Variable Wind from NE
Gusts 1.0 mph

Today
High -- | Low -- °F
--% Chance of Precip.
Yesterday
High -- | Low -- °F
Precip. -- in
6:59 AM 5:04 PM
Waning Crescent, 14% visible
Pressure 30.08 in
Visibility 10.0 miles
Clouds Few 6000 ft
Windchill 45 °F
Dew Point 36 °F
Humidity 71%
Rainfall 0.00 in
Snow Depth Not available.
UV 0 out of 12
Pollen 7.00 out of 12
Air Quality Not available.
Flu Activity Not available.
METAR KELP 181451Z 11003KT 10SM FEW060 03/00 A3013 RMK AO2 SLP184 T00330000 51006

More Conditions Fewer Conditions

Pressure 30.08 in
Visibility 10.0 miles
Clouds Few 6000 ft
Windchill 45 °F
Dew Point 36 °F
Humidity 71%
Rainfall 0.00 in
Snow Depth Not available.
UV 0 out of 12
Pollen 7.00 out of 12
Air Quality Not available.
Flu Activity Not available.
METAR KELP 181451Z 11003KT 10SM FEW060 03/00 A3013 RMK AO2 SLP184 T00330000 51006

More Conditions Fewer Conditions

10-Day Weather Forecast

Almanac

Astronomy

Dec. 18, 2014 Rise Set
Actual Time
Civil Twilight
Nautical Twilight
Astronomical Twilight
Moon
Length of Visible Light
Length of Day
Tomorrow will be .
, % of the Moon is Illuminated

Today's Extremes

State Highs State Lows

Community

WunderPhotos

Upload Photos

1,778,937 photos uploaded!

WunderBlogs® & News

Nearby

Air Quality

  Air Quality AQ Index Pollutant
Not available.

Snow Depth

Station Depth Elevation

Earthquake Activity

City Distance Mag. Time & Date
Minimum magnitude displayed is 2.5.

Coastal Water Temperatures

Place Temperature

Nearby Weather Stations